sensor_id;sensor_type;location;lat;lon;timestamp;P1;durP1;ratioP1;P2;durP2;ratioP2
23668;SDS011;12011;47.422;15.018;2023-01-09T00:01:53;17.76;;;16.94;;
23668;SDS011;12011;47.422;15.018;2023-01-09T00:04:22;16.64;;;16.04;;
23668;SDS011;12011;47.422;15.018;2023-01-09T00:06:52;17.36;;;16.88;;
23668;SDS011;12011;47.422;15.018;2023-01-09T00:09:22;17.84;;;17.31;;
23668;SDS011;12011;47.422;15.018;2023-01-09T00:11:54;16.00;;;15.59;;
23668;SDS011;12011;47.422;15.018;2023-01-09T00:14:27;15.89;;;15.51;;
23668;SDS011;12011;47.422;15.018;2023-01-09T00:16:57;18.24;;;17.64;;
23668;SDS011;12011;47.422;15.018;2023-01-09T00:19:26;25.19;;;24.27;;
23668;SDS011;12011;47.422;15.018;2023-01-09T00:21:57;19.62;;;18.93;;
23668;SDS011;12011;47.422;15.018;2023-01-09T00:24:27;15.77;;;15.35;;
23668;SDS011;12011;47.422;15.018;2023-01-09T00:26:56;14.85;;;14.44;;
23668;SDS011;12011;47.422;15.018;2023-01-09T00:29:28;15.37;;;14.90;;
23668;SDS011;12011;47.422;15.018;2023-01-09T00:32:00;14.65;;;14.36;;
23668;SDS011;12011;47.422;15.018;2023-01-09T00:34:34;14.85;;;14.38;;
23668;SDS011;12011;47.422;15.018;2023-01-09T00:37:05;14.88;;;14.27;;
23668;SDS011;12011;47.422;15.018;2023-01-09T00:39:36;17.63;;;17.16;;
23668;SDS011;12011;47.422;15.018;2023-01-09T00:42:06;22.24;;;21.36;;
23668;SDS011;12011;47.422;15.018;2023-01-09T00:44:45;20.27;;;19.62;;
23668;SDS011;12011;47.422;15.018;2023-01-09T00:47:20;21.83;;;21.16;;
23668;SDS011;12011;47.422;15.018;2023-01-09T00:49:55;20.15;;;19.30;;
23668;SDS011;12011;47.422;15.018;2023-01-09T00:52:34;18.54;;;17.89;;
23668;SDS011;12011;47.422;15.018;2023-01-09T00:55:07;19.27;;;18.59;;
23668;SDS011;12011;47.422;15.018;2023-01-09T00:57:38;17.12;;;16.72;;
23668;SDS011;12011;47.422;15.018;2023-01-09T01:02:51;15.99;;;15.57;;
23668;SDS011;12011;47.422;15.018;2023-01-09T01:05:21;15.90;;;15.42;;
23668;SDS011;12011;47.422;15.018;2023-01-09T01:08:08;15.33;;;14.90;;
23668;SDS011;12011;47.422;15.018;2023-01-09T01:10:39;13.11;;;12.69;;
23668;SDS011;12011;47.422;15.018;2023-01-09T01:13:10;12.87;;;12.54;;
23668;SDS011;12011;47.422;15.018;2023-01-09T01:15:43;13.33;;;12.88;;
23668;SDS011;12011;47.422;15.018;2023-01-09T01:18:14;12.57;;;12.31;;
23668;SDS011;12011;47.422;15.018;2023-01-09T01:20:44;13.54;;;13.25;;
23668;SDS011;12011;47.422;15.018;2023-01-09T01:23:13;12.63;;;12.24;;
23668;SDS011;12011;47.422;15.018;2023-01-09T01:25:46;11.31;;;11.07;;
23668;SDS011;12011;47.422;15.018;2023-01-09T01:28:16;10.92;;;10.63;;
23668;SDS011;12011;47.422;15.018;2023-01-09T01:30:49;13.03;;;12.54;;
23668;SDS011;12011;47.422;15.018;2023-01-09T01:33:19;13.77;;;13.41;;
23668;SDS011;12011;47.422;15.018;2023-01-09T01:35:48;12.65;;;12.37;;
23668;SDS011;12011;47.422;15.018;2023-01-09T01:38:27;13.03;;;12.60;;
23668;SDS011;12011;47.422;15.018;2023-01-09T01:40:58;13.69;;;13.14;;
23668;SDS011;12011;47.422;15.018;2023-01-09T01:43:27;13.36;;;12.91;;
23668;SDS011;12011;47.422;15.018;2023-01-09T01:46:20;12.32;;;12.04;;
23668;SDS011;12011;47.422;15.018;2023-01-09T01:48:52;12.51;;;12.11;;
23668;SDS011;12011;47.422;15.018;2023-01-09T01:51:28;12.05;;;11.77;;
23668;SDS011;12011;47.422;15.018;2023-01-09T01:54:04;12.32;;;11.86;;
23668;SDS011;12011;47.422;15.018;2023-01-09T01:56:41;11.68;;;11.22;;
23668;SDS011;12011;47.422;15.018;2023-01-09T01:59:18;12.49;;;12.18;;
23668;SDS011;12011;47.422;15.018;2023-01-09T02:01:56;12.87;;;12.54;;
23668;SDS011;12011;47.422;15.018;2023-01-09T02:04:29;13.30;;;12.84;;
23668;SDS011;12011;47.422;15.018;2023-01-09T02:07:06;12.64;;;12.38;;
23668;SDS011;12011;47.422;15.018;2023-01-09T02:09:39;12.46;;;12.10;;
23668;SDS011;12011;47.422;15.018;2023-01-09T02:12:15;11.62;;;11.30;;
23668;SDS011;12011;47.422;15.018;2023-01-09T02:14:48;11.60;;;11.20;;
23668;SDS011;12011;47.422;15.018;2023-01-09T02:17:39;11.54;;;11.34;;
23668;SDS011;12011;47.422;15.018;2023-01-09T02:20:41;11.22;;;10.86;;
23668;SDS011;12011;47.422;15.018;2023-01-09T02:27:02;11.27;;;11.06;;
23668;SDS011;12011;47.422;15.018;2023-01-09T02:33:15;13.54;;;13.13;;
23668;SDS011;12011;47.422;15.018;2023-01-09T02:36:02;15.00;;;14.47;;
23668;SDS011;12011;47.422;15.018;2023-01-09T02:38:52;14.93;;;14.56;;
23668;SDS011;12011;47.422;15.018;2023-01-09T02:41:39;14.47;;;14.03;;
23668;SDS011;12011;47.422;15.018;2023-01-09T02:44:20;12.65;;;12.24;;
23668;SDS011;12011;47.422;15.018;2023-01-09T02:47:02;12.41;;;12.12;;
23668;SDS011;12011;47.422;15.018;2023-01-09T02:49:35;13.46;;;13.15;;
23668;SDS011;12011;47.422;15.018;2023-01-09T02:52:17;13.68;;;13.29;;
23668;SDS011;12011;47.422;15.018;2023-01-09T02:55:05;12.86;;;12.56;;
23668;SDS011;12011;47.422;15.018;2023-01-09T02:57:50;13.62;;;13.20;;
23668;SDS011;12011;47.422;15.018;2023-01-09T03:00:33;12.59;;;12.25;;
23668;SDS011;12011;47.422;15.018;2023-01-09T03:03:20;12.85;;;12.57;;
23668;SDS011;12011;47.422;15.018;2023-01-09T03:06:07;13.18;;;12.93;;
23668;SDS011;12011;47.422;15.018;2023-01-09T03:08:49;13.09;;;12.82;;
23668;SDS011;12011;47.422;15.018;2023-01-09T03:11:23;12.41;;;12.22;;
23668;SDS011;12011;47.422;15.018;2023-01-09T03:14:02;11.79;;;11.57;;
23668;SDS011;12011;47.422;15.018;2023-01-09T03:16:39;13.36;;;13.03;;
23668;SDS011;12011;47.422;15.018;2023-01-09T03:19:17;13.18;;;12.85;;
23668;SDS011;12011;47.422;15.018;2023-01-09T03:21:51;12.28;;;11.99;;
23668;SDS011;12011;47.422;15.018;2023-01-09T03:24:24;12.53;;;12.22;;
23668;SDS011;12011;47.422;15.018;2023-01-09T03:26:53;11.33;;;11.08;;
23668;SDS011;12011;47.422;15.018;2023-01-09T03:29:26;11.28;;;11.05;;
23668;SDS011;12011;47.422;15.018;2023-01-09T03:31:56;10.98;;;10.64;;
23668;SDS011;12011;47.422;15.018;2023-01-09T03:34:28;10.49;;;10.14;;
23668;SDS011;12011;47.422;15.018;2023-01-09T03:36:59;9.54;;;9.31;;
23668;SDS011;12011;47.422;15.018;2023-01-09T03:39:29;9.97;;;9.81;;
23668;SDS011;12011;47.422;15.018;2023-01-09T03:41:59;9.35;;;9.19;;
23668;SDS011;12011;47.422;15.018;2023-01-09T03:44:28;9.54;;;9.38;;
23668;SDS011;12011;47.422;15.018;2023-01-09T03:47:01;9.62;;;9.39;;
23668;SDS011;12011;47.422;15.018;2023-01-09T03:49:33;9.87;;;9.62;;
23668;SDS011;12011;47.422;15.018;2023-01-09T03:52:03;9.52;;;9.28;;
23668;SDS011;12011;47.422;15.018;2023-01-09T03:54:33;10.28;;;10.10;;
23668;SDS011;12011;47.422;15.018;2023-01-09T03:57:03;13.61;;;13.30;;
23668;SDS011;12011;47.422;15.018;2023-01-09T03:59:33;17.43;;;16.75;;
23668;SDS011;12011;47.422;15.018;2023-01-09T04:02:04;17.05;;;16.15;;
23668;SDS011;12011;47.422;15.018;2023-01-09T04:04:37;21.61;;;20.09;;
23668;SDS011;12011;47.422;15.018;2023-01-09T04:07:07;21.60;;;20.05;;
23668;SDS011;12011;47.422;15.018;2023-01-09T04:09:36;19.69;;;18.36;;
23668;SDS011;12011;47.422;15.018;2023-01-09T04:12:06;19.82;;;18.73;;
23668;SDS011;12011;47.422;15.018;2023-01-09T04:14:35;17.73;;;16.88;;
23668;SDS011;12011;47.422;15.018;2023-01-09T04:17:05;15.20;;;14.57;;
23668;SDS011;12011;47.422;15.018;2023-01-09T04:19:37;15.22;;;14.52;;
23668;SDS011;12011;47.422;15.018;2023-01-09T04:22:06;12.94;;;12.38;;
23668;SDS011;12011;47.422;15.018;2023-01-09T04:24:36;11.05;;;10.60;;
23668;SDS011;12011;47.422;15.018;2023-01-09T04:27:08;9.03;;;8.79;;
23668;SDS011;12011;47.422;15.018;2023-01-09T04:29:38;8.87;;;8.68;;
23668;SDS011;12011;47.422;15.018;2023-01-09T04:32:10;9.29;;;9.11;;
23668;SDS011;12011;47.422;15.018;2023-01-09T04:34:48;9.94;;;9.80;;
23668;SDS011;12011;47.422;15.018;2023-01-09T04:37:17;11.36;;;11.09;;
23668;SDS011;12011;47.422;15.018;2023-01-09T04:39:49;11.38;;;11.05;;
23668;SDS011;12011;47.422;15.018;2023-01-09T04:42:22;11.54;;;11.25;;
23668;SDS011;12011;47.422;15.018;2023-01-09T04:44:52;11.31;;;11.05;;
23668;SDS011;12011;47.422;15.018;2023-01-09T04:47:21;11.35;;;11.11;;
23668;SDS011;12011;47.422;15.018;2023-01-09T04:49:53;13.45;;;13.10;;
23668;SDS011;12011;47.422;15.018;2023-01-09T04:52:27;16.59;;;15.98;;
23668;SDS011;12011;47.422;15.018;2023-01-09T04:54:57;16.00;;;15.13;;
23668;SDS011;12011;47.422;15.018;2023-01-09T04:57:28;16.32;;;15.57;;
23668;SDS011;12011;47.422;15.018;2023-01-09T04:59:59;15.93;;;15.31;;
23668;SDS011;12011;47.422;15.018;2023-01-09T05:02:30;15.22;;;14.50;;
23668;SDS011;12011;47.422;15.018;2023-01-09T05:05:07;16.03;;;15.26;;
23668;SDS011;12011;47.422;15.018;2023-01-09T05:07:40;14.57;;;13.94;;
23668;SDS011;12011;47.422;15.018;2023-01-09T05:10:10;15.52;;;15.00;;
23668;SDS011;12011;47.422;15.018;2023-01-09T05:12:40;14.52;;;14.08;;
23668;SDS011;12011;47.422;15.018;2023-01-09T05:15:10;14.32;;;13.96;;
23668;SDS011;12011;47.422;15.018;2023-01-09T05:17:40;13.62;;;13.21;;
23668;SDS011;12011;47.422;15.018;2023-01-09T05:20:12;13.42;;;12.93;;
23668;SDS011;12011;47.422;15.018;2023-01-09T05:22:42;13.39;;;12.82;;
23668;SDS011;12011;47.422;15.018;2023-01-09T05:25:12;18.31;;;17.70;;
23668;SDS011;12011;47.422;15.018;2023-01-09T05:27:44;18.96;;;18.53;;
23668;SDS011;12011;47.422;15.018;2023-01-09T05:30:13;17.42;;;17.17;;
23668;SDS011;12011;47.422;15.018;2023-01-09T05:32:43;16.96;;;16.74;;
23668;SDS011;12011;47.422;15.018;2023-01-09T05:35:17;16.30;;;15.93;;
23668;SDS011;12011;47.422;15.018;2023-01-09T05:37:47;12.87;;;12.50;;
23668;SDS011;12011;47.422;15.018;2023-01-09T05:40:17;12.48;;;12.15;;
23668;SDS011;12011;47.422;15.018;2023-01-09T05:42:46;12.85;;;12.44;;
23668;SDS011;12011;47.422;15.018;2023-01-09T05:45:19;13.83;;;13.30;;
23668;SDS011;12011;47.422;15.018;2023-01-09T05:47:56;15.28;;;14.76;;
23668;SDS011;12011;47.422;15.018;2023-01-09T05:50:31;13.61;;;13.15;;
23668;SDS011;12011;47.422;15.018;2023-01-09T05:53:13;13.70;;;13.48;;
23668;SDS011;12011;47.422;15.018;2023-01-09T05:55:47;13.92;;;13.70;;
23668;SDS011;12011;47.422;15.018;2023-01-09T05:58:17;13.20;;;12.94;;
23668;SDS011;12011;47.422;15.018;2023-01-09T06:00:47;13.16;;;12.93;;
23668;SDS011;12011;47.422;15.018;2023-01-09T06:03:25;12.43;;;12.29;;
23668;SDS011;12011;47.422;15.018;2023-01-09T06:06:00;12.65;;;12.31;;
23668;SDS011;12011;47.422;15.018;2023-01-09T06:08:32;12.68;;;12.42;;
23668;SDS011;12011;47.422;15.018;2023-01-09T06:11:06;12.97;;;12.66;;
23668;SDS011;12011;47.422;15.018;2023-01-09T06:13:38;12.97;;;12.77;;
23668;SDS011;12011;47.422;15.018;2023-01-09T06:16:12;13.15;;;12.83;;
23668;SDS011;12011;47.422;15.018;2023-01-09T06:18:42;14.59;;;14.25;;
23668;SDS011;12011;47.422;15.018;2023-01-09T06:21:14;16.02;;;15.60;;
23668;SDS011;12011;47.422;15.018;2023-01-09T06:23:45;14.70;;;14.30;;
23668;SDS011;12011;47.422;15.018;2023-01-09T06:26:15;13.71;;;13.24;;
23668;SDS011;12011;47.422;15.018;2023-01-09T06:28:44;11.76;;;11.56;;
23668;SDS011;12011;47.422;15.018;2023-01-09T06:31:14;13.04;;;12.84;;
23668;SDS011;12011;47.422;15.018;2023-01-09T06:33:43;14.08;;;13.73;;
23668;SDS011;12011;47.422;15.018;2023-01-09T06:36:15;14.54;;;14.17;;
23668;SDS011;12011;47.422;15.018;2023-01-09T06:38:45;14.46;;;14.05;;
23668;SDS011;12011;47.422;15.018;2023-01-09T06:41:15;13.66;;;13.38;;
23668;SDS011;12011;47.422;15.018;2023-01-09T06:43:44;13.20;;;12.88;;
23668;SDS011;12011;47.422;15.018;2023-01-09T06:46:15;13.17;;;12.95;;
23668;SDS011;12011;47.422;15.018;2023-01-09T06:48:45;14.83;;;14.62;;
23668;SDS011;12011;47.422;15.018;2023-01-09T06:51:17;13.34;;;12.94;;
23668;SDS011;12011;47.422;15.018;2023-01-09T06:53:46;51.41;;;49.19;;
23668;SDS011;12011;47.422;15.018;2023-01-09T06:56:16;17.56;;;16.92;;
23668;SDS011;12011;47.422;15.018;2023-01-09T06:58:45;16.64;;;16.14;;
23668;SDS011;12011;47.422;15.018;2023-01-09T07:01:15;17.22;;;16.86;;
23668;SDS011;12011;47.422;15.018;2023-01-09T07:03:45;15.88;;;15.53;;
23668;SDS011;12011;47.422;15.018;2023-01-09T07:06:18;31.81;;;30.28;;
23668;SDS011;12011;47.422;15.018;2023-01-09T07:08:48;25.98;;;24.94;;
23668;SDS011;12011;47.422;15.018;2023-01-09T07:11:18;17.19;;;16.70;;
23668;SDS011;12011;47.422;15.018;2023-01-09T07:13:47;13.15;;;12.77;;
23668;SDS011;12011;47.422;15.018;2023-01-09T07:16:17;12.32;;;11.89;;
23668;SDS011;12011;47.422;15.018;2023-01-09T07:18:46;12.08;;;11.70;;
23668;SDS011;12011;47.422;15.018;2023-01-09T07:21:19;12.65;;;12.28;;
23668;SDS011;12011;47.422;15.018;2023-01-09T07:23:49;13.55;;;13.25;;
23668;SDS011;12011;47.422;15.018;2023-01-09T07:26:18;15.62;;;15.32;;
23668;SDS011;12011;47.422;15.018;2023-01-09T07:28:48;12.63;;;12.33;;
23668;SDS011;12011;47.422;15.018;2023-01-09T07:31:19;12.68;;;12.45;;
23668;SDS011;12011;47.422;15.018;2023-01-09T07:33:48;12.53;;;12.28;;
23668;SDS011;12011;47.422;15.018;2023-01-09T07:36:20;12.09;;;11.89;;
23668;SDS011;12011;47.422;15.018;2023-01-09T07:38:50;12.88;;;12.73;;
23668;SDS011;12011;47.422;15.018;2023-01-09T07:41:19;14.02;;;13.82;;
23668;SDS011;12011;47.422;15.018;2023-01-09T07:43:49;14.85;;;14.48;;
23668;SDS011;12011;47.422;15.018;2023-01-09T07:46:18;15.40;;;15.10;;
23668;SDS011;12011;47.422;15.018;2023-01-09T07:48:48;15.51;;;15.20;;
23668;SDS011;12011;47.422;15.018;2023-01-09T07:51:21;16.45;;;16.01;;
23668;SDS011;12011;47.422;15.018;2023-01-09T07:53:50;15.66;;;15.03;;
23668;SDS011;12011;47.422;15.018;2023-01-09T07:56:20;15.07;;;14.63;;
23668;SDS011;12011;47.422;15.018;2023-01-09T07:58:49;15.31;;;14.96;;
23668;SDS011;12011;47.422;15.018;2023-01-09T08:01:19;13.36;;;13.16;;
23668;SDS011;12011;47.422;15.018;2023-01-09T08:03:49;12.04;;;11.87;;
23668;SDS011;12011;47.422;15.018;2023-01-09T08:06:21;12.00;;;11.82;;
23668;SDS011;12011;47.422;15.018;2023-01-09T08:08:51;11.97;;;11.86;;
23668;SDS011;12011;47.422;15.018;2023-01-09T08:11:20;14.88;;;14.72;;
23668;SDS011;12011;47.422;15.018;2023-01-09T08:13:50;16.07;;;15.83;;
23668;SDS011;12011;47.422;15.018;2023-01-09T08:16:20;15.00;;;14.73;;
23668;SDS011;12011;47.422;15.018;2023-01-09T08:18:49;14.95;;;14.68;;
23668;SDS011;12011;47.422;15.018;2023-01-09T08:21:21;14.33;;;14.14;;
23668;SDS011;12011;47.422;15.018;2023-01-09T08:23:51;15.00;;;14.70;;
23668;SDS011;12011;47.422;15.018;2023-01-09T08:26:21;16.21;;;15.95;;
23668;SDS011;12011;47.422;15.018;2023-01-09T08:28:50;17.54;;;17.15;;
23668;SDS011;12011;47.422;15.018;2023-01-09T08:31:20;19.75;;;18.96;;
23668;SDS011;12011;47.422;15.018;2023-01-09T08:33:49;21.06;;;20.17;;
23668;SDS011;12011;47.422;15.018;2023-01-09T08:36:19;21.34;;;20.43;;
23668;SDS011;12011;47.422;15.018;2023-01-09T08:38:51;22.27;;;21.57;;
23668;SDS011;12011;47.422;15.018;2023-01-09T08:41:21;22.48;;;21.55;;
23668;SDS011;12011;47.422;15.018;2023-01-09T08:44:08;21.84;;;20.94;;
23668;SDS011;12011;47.422;15.018;2023-01-09T08:46:50;21.37;;;20.89;;
23668;SDS011;12011;47.422;15.018;2023-01-09T08:49:35;22.99;;;22.35;;
23668;SDS011;12011;47.422;15.018;2023-01-09T08:52:09;24.73;;;23.73;;
23668;SDS011;12011;47.422;15.018;2023-01-09T08:54:40;23.59;;;22.81;;
23668;SDS011;12011;47.422;15.018;2023-01-09T08:57:10;23.79;;;22.98;;
23668;SDS011;12011;47.422;15.018;2023-01-09T08:59:44;21.90;;;21.02;;
23668;SDS011;12011;47.422;15.018;2023-01-09T09:02:13;20.01;;;19.34;;
23668;SDS011;12011;47.422;15.018;2023-01-09T09:04:43;19.90;;;19.28;;
23668;SDS011;12011;47.422;15.018;2023-01-09T09:07:18;18.94;;;18.50;;
23668;SDS011;12011;47.422;15.018;2023-01-09T09:09:51;19.54;;;18.99;;
23668;SDS011;12011;47.422;15.018;2023-01-09T09:12:21;20.52;;;20.11;;
23668;SDS011;12011;47.422;15.018;2023-01-09T09:14:51;25.27;;;24.64;;
23668;SDS011;12011;47.422;15.018;2023-01-09T09:17:34;22.35;;;21.89;;
23668;SDS011;12011;47.422;15.018;2023-01-09T09:20:05;20.94;;;20.50;;
23668;SDS011;12011;47.422;15.018;2023-01-09T09:22:40;17.98;;;17.63;;
23668;SDS011;12011;47.422;15.018;2023-01-09T09:25:10;15.47;;;15.19;;
23668;SDS011;12011;47.422;15.018;2023-01-09T09:27:39;18.83;;;18.17;;
23668;SDS011;12011;47.422;15.018;2023-01-09T09:30:12;17.88;;;17.45;;
23668;SDS011;12011;47.422;15.018;2023-01-09T09:32:46;16.36;;;16.11;;
23668;SDS011;12011;47.422;15.018;2023-01-09T09:35:16;15.93;;;15.65;;
23668;SDS011;12011;47.422;15.018;2023-01-09T09:37:56;15.87;;;15.64;;
23668;SDS011;12011;47.422;15.018;2023-01-09T09:40:37;18.93;;;18.52;;
23668;SDS011;12011;47.422;15.018;2023-01-09T09:43:39;21.24;;;20.59;;
23668;SDS011;12011;47.422;15.018;2023-01-09T09:46:52;22.00;;;21.39;;
23668;SDS011;12011;47.422;15.018;2023-01-09T09:49:34;21.53;;;21.10;;
23668;SDS011;12011;47.422;15.018;2023-01-09T09:52:24;19.82;;;19.40;;
23668;SDS011;12011;47.422;15.018;2023-01-09T09:55:14;19.73;;;19.33;;
23668;SDS011;12011;47.422;15.018;2023-01-09T09:57:55;19.53;;;19.00;;
23668;SDS011;12011;47.422;15.018;2023-01-09T10:00:31;18.57;;;18.09;;
23668;SDS011;12011;47.422;15.018;2023-01-09T10:03:02;17.97;;;17.47;;
23668;SDS011;12011;47.422;15.018;2023-01-09T10:05:38;14.76;;;14.54;;
23668;SDS011;12011;47.422;15.018;2023-01-09T10:08:17;15.60;;;15.32;;
23668;SDS011;12011;47.422;15.018;2023-01-09T10:11:04;19.13;;;18.95;;
23668;SDS011;12011;47.422;15.018;2023-01-09T10:13:46;14.89;;;14.73;;
23668;SDS011;12011;47.422;15.018;2023-01-09T10:16:31;13.16;;;12.97;;
23668;SDS011;12011;47.422;15.018;2023-01-09T10:19:22;13.95;;;13.74;;
23668;SDS011;12011;47.422;15.018;2023-01-09T10:22:13;15.78;;;15.43;;
23668;SDS011;12011;47.422;15.018;2023-01-09T10:24:57;16.47;;;16.04;;
23668;SDS011;12011;47.422;15.018;2023-01-09T10:27:47;14.76;;;14.34;;
23668;SDS011;12011;47.422;15.018;2023-01-09T10:30:36;12.96;;;12.73;;
23668;SDS011;12011;47.422;15.018;2023-01-09T10:33:15;15.10;;;14.87;;
23668;SDS011;12011;47.422;15.018;2023-01-09T10:36:09;15.74;;;15.40;;
23668;SDS011;12011;47.422;15.018;2023-01-09T10:39:26;16.19;;;15.86;;
23668;SDS011;12011;47.422;15.018;2023-01-09T10:42:07;16.29;;;16.15;;
23668;SDS011;12011;47.422;15.018;2023-01-09T10:44:50;14.14;;;14.00;;
23668;SDS011;12011;47.422;15.018;2023-01-09T10:47:26;12.39;;;12.29;;
23668;SDS011;12011;47.422;15.018;2023-01-09T10:50:01;12.28;;;12.09;;
23668;SDS011;12011;47.422;15.018;2023-01-09T10:52:48;11.48;;;11.23;;
23668;SDS011;12011;47.422;15.018;2023-01-09T10:55:22;10.45;;;10.29;;
23668;SDS011;12011;47.422;15.018;2023-01-09T10:58:09;20.23;;;19.92;;
23668;SDS011;12011;47.422;15.018;2023-01-09T11:00:43;21.61;;;21.24;;
23668;SDS011;12011;47.422;15.018;2023-01-09T11:03:14;22.03;;;21.67;;
23668;SDS011;12011;47.422;15.018;2023-01-09T11:05:48;22.13;;;21.88;;
23668;SDS011;12011;47.422;15.018;2023-01-09T11:08:22;22.88;;;22.44;;
23668;SDS011;12011;47.422;15.018;2023-01-09T11:10:57;24.74;;;24.34;;
23668;SDS011;12011;47.422;15.018;2023-01-09T11:13:30;20.47;;;20.19;;
23668;SDS011;12011;47.422;15.018;2023-01-09T11:16:07;16.92;;;16.66;;
23668;SDS011;12011;47.422;15.018;2023-01-09T11:18:47;15.34;;;15.22;;
23668;SDS011;12011;47.422;15.018;2023-01-09T11:21:26;14.90;;;14.60;;
23668;SDS011;12011;47.422;15.018;2023-01-09T11:24:20;14.00;;;13.81;;
23668;SDS011;12011;47.422;15.018;2023-01-09T11:30:06;12.29;;;12.09;;
23668;SDS011;12011;47.422;15.018;2023-01-09T11:32:53;12.52;;;12.31;;
23668;SDS011;12011;47.422;15.018;2023-01-09T11:35:26;12.71;;;12.62;;
23668;SDS011;12011;47.422;15.018;2023-01-09T11:38:05;9.01;;;8.92;;
23668;SDS011;12011;47.422;15.018;2023-01-09T11:40:45;7.10;;;7.03;;
23668;SDS011;12011;47.422;15.018;2023-01-09T11:43:19;6.05;;;6.03;;
23668;SDS011;12011;47.422;15.018;2023-01-09T11:45:57;3.82;;;3.79;;
23668;SDS011;12011;47.422;15.018;2023-01-09T11:48:38;7.25;;;7.17;;
23668;SDS011;12011;47.422;15.018;2023-01-09T11:51:22;8.62;;;8.49;;
23668;SDS011;12011;47.422;15.018;2023-01-09T11:56:49;5.09;;;5.06;;
23668;SDS011;12011;47.422;15.018;2023-01-09T11:59:21;5.54;;;5.51;;
23668;SDS011;12011;47.422;15.018;2023-01-09T12:05:13;4.39;;;4.33;;
23668;SDS011;12011;47.422;15.018;2023-01-09T12:08:09;5.17;;;5.13;;
23668;SDS011;12011;47.422;15.018;2023-01-09T12:11:02;4.45;;;4.41;;
23668;SDS011;12011;47.422;15.018;2023-01-09T12:13:48;4.40;;;4.37;;
23668;SDS011;12011;47.422;15.018;2023-01-09T12:16:50;4.91;;;4.85;;
23668;SDS011;12011;47.422;15.018;2023-01-09T12:19:49;5.19;;;5.07;;
23668;SDS011;12011;47.422;15.018;2023-01-09T12:22:43;3.97;;;3.92;;
23668;SDS011;12011;47.422;15.018;2023-01-09T12:25:32;5.33;;;5.22;;
23668;SDS011;12011;47.422;15.018;2023-01-09T12:28:25;9.09;;;8.96;;
23668;SDS011;12011;47.422;15.018;2023-01-09T12:31:21;4.48;;;4.43;;
23668;SDS011;12011;47.422;15.018;2023-01-09T12:34:14;2.14;;;2.13;;
23668;SDS011;12011;47.422;15.018;2023-01-09T12:37:08;2.26;;;2.23;;
23668;SDS011;12011;47.422;15.018;2023-01-09T12:40:00;2.20;;;2.17;;
23668;SDS011;12011;47.422;15.018;2023-01-09T12:42:46;3.22;;;3.16;;
23668;SDS011;12011;47.422;15.018;2023-01-09T12:45:33;3.24;;;3.18;;
23668;SDS011;12011;47.422;15.018;2023-01-09T12:48:22;2.80;;;2.76;;
23668;SDS011;12011;47.422;15.018;2023-01-09T12:51:14;3.14;;;3.10;;
23668;SDS011;12011;47.422;15.018;2023-01-09T12:53:58;2.47;;;2.43;;
23668;SDS011;12011;47.422;15.018;2023-01-09T12:56:34;2.74;;;2.70;;
23668;SDS011;12011;47.422;15.018;2023-01-09T12:59:14;3.50;;;3.45;;
23668;SDS011;12011;47.422;15.018;2023-01-09T13:02:00;4.08;;;4.03;;
23668;SDS011;12011;47.422;15.018;2023-01-09T13:04:44;3.05;;;2.97;;
23668;SDS011;12011;47.422;15.018;2023-01-09T13:07:22;2.38;;;2.31;;
23668;SDS011;12011;47.422;15.018;2023-01-09T13:10:01;1.71;;;1.67;;
23668;SDS011;12011;47.422;15.018;2023-01-09T13:12:45;1.76;;;1.73;;
23668;SDS011;12011;47.422;15.018;2023-01-09T13:15:21;2.30;;;2.25;;
23668;SDS011;12011;47.422;15.018;2023-01-09T13:17:59;2.02;;;1.97;;
23668;SDS011;12011;47.422;15.018;2023-01-09T13:20:42;2.50;;;2.45;;
23668;SDS011;12011;47.422;15.018;2023-01-09T13:23:17;2.96;;;2.91;;
23668;SDS011;12011;47.422;15.018;2023-01-09T13:26:01;2.43;;;2.39;;
23668;SDS011;12011;47.422;15.018;2023-01-09T13:28:38;1.80;;;1.76;;
23668;SDS011;12011;47.422;15.018;2023-01-09T13:34:12;5.91;;;5.82;;
23668;SDS011;12011;47.422;15.018;2023-01-09T13:36:47;2.84;;;2.79;;
23668;SDS011;12011;47.422;15.018;2023-01-09T13:39:20;2.75;;;2.72;;
23668;SDS011;12011;47.422;15.018;2023-01-09T13:41:56;3.24;;;3.22;;
23668;SDS011;12011;47.422;15.018;2023-01-09T13:44:41;2.73;;;2.72;;
23668;SDS011;12011;47.422;15.018;2023-01-09T13:47:15;2.03;;;2.02;;
23668;SDS011;12011;47.422;15.018;2023-01-09T13:52:50;2.17;;;2.16;;
23668;SDS011;12011;47.422;15.018;2023-01-09T13:55:25;2.25;;;2.24;;
23668;SDS011;12011;47.422;15.018;2023-01-09T13:58:16;2.12;;;2.12;;
23668;SDS011;12011;47.422;15.018;2023-01-09T14:00:55;2.11;;;2.09;;
23668;SDS011;12011;47.422;15.018;2023-01-09T14:03:33;2.28;;;2.27;;
23668;SDS011;12011;47.422;15.018;2023-01-09T14:11:40;2.02;;;1.99;;
23668;SDS011;12011;47.422;15.018;2023-01-09T14:14:20;2.08;;;2.04;;
23668;SDS011;12011;47.422;15.018;2023-01-09T14:16:57;2.18;;;2.14;;
23668;SDS011;12011;47.422;15.018;2023-01-09T14:19:32;1.75;;;1.73;;
23668;SDS011;12011;47.422;15.018;2023-01-09T14:22:05;1.79;;;1.78;;
23668;SDS011;12011;47.422;15.018;2023-01-09T14:24:52;2.08;;;2.05;;
23668;SDS011;12011;47.422;15.018;2023-01-09T14:30:31;3.67;;;3.40;;
23668;SDS011;12011;47.422;15.018;2023-01-09T14:33:06;1.12;;;1.04;;
23668;SDS011;12011;47.422;15.018;2023-01-09T14:35:59;0.64;;;0.59;;
23668;SDS011;12011;47.422;15.018;2023-01-09T14:38:40;0.54;;;0.50;;
23668;SDS011;12011;47.422;15.018;2023-01-09T14:41:18;0.59;;;0.55;;
23668;SDS011;12011;47.422;15.018;2023-01-09T14:44:05;0.48;;;0.45;;
23668;SDS011;12011;47.422;15.018;2023-01-09T14:46:57;0.84;;;0.80;;
23668;SDS011;12011;47.422;15.018;2023-01-09T14:49:38;4.39;;;4.22;;
23668;SDS011;12011;47.422;15.018;2023-01-09T14:52:14;7.66;;;7.45;;
23668;SDS011;12011;47.422;15.018;2023-01-09T14:54:53;5.02;;;4.84;;
23668;SDS011;12011;47.422;15.018;2023-01-09T14:57:29;4.81;;;4.68;;
23668;SDS011;12011;47.422;15.018;2023-01-09T15:00:02;5.19;;;5.09;;
23668;SDS011;12011;47.422;15.018;2023-01-09T15:02:45;4.35;;;4.29;;
23668;SDS011;12011;47.422;15.018;2023-01-09T15:05:18;2.89;;;2.84;;
23668;SDS011;12011;47.422;15.018;2023-01-09T15:07:53;3.11;;;3.04;;
23668;SDS011;12011;47.422;15.018;2023-01-09T15:10:28;3.10;;;3.04;;
23668;SDS011;12011;47.422;15.018;2023-01-09T15:13:00;2.26;;;2.22;;
23668;SDS011;12011;47.422;15.018;2023-01-09T15:15:35;2.00;;;1.94;;
23668;SDS011;12011;47.422;15.018;2023-01-09T15:18:07;1.37;;;1.31;;
23668;SDS011;12011;47.422;15.018;2023-01-09T15:20:37;1.12;;;1.08;;
23668;SDS011;12011;47.422;15.018;2023-01-09T15:23:18;1.37;;;1.33;;
23668;SDS011;12011;47.422;15.018;2023-01-09T15:25:50;1.66;;;1.61;;
23668;SDS011;12011;47.422;15.018;2023-01-09T15:28:22;2.07;;;2.03;;
23668;SDS011;12011;47.422;15.018;2023-01-09T15:31:00;2.66;;;2.62;;
23668;SDS011;12011;47.422;15.018;2023-01-09T15:33:37;5.52;;;5.40;;
23668;SDS011;12011;47.422;15.018;2023-01-09T15:36:10;4.60;;;4.48;;
23668;SDS011;12011;47.422;15.018;2023-01-09T15:38:45;2.63;;;2.55;;
23668;SDS011;12011;47.422;15.018;2023-01-09T15:41:18;2.18;;;2.12;;